Time;durP1;ratioP1;P1;durP2;ratioP2;P2;SDS_P1;SDS_P2;PMS_P1;PMS_P2;Temp;Humidity;BMP_temperature;BMP_pressure;BME280_temperature;BME280_humidity;BME280_pressure;Samples;Min_cycle;Max_cycle;Signal;HPM_P1;HPM_P2
2023/03/20 00:02:26;;;;;;;1999.90;999.90;;;;;;;9.52;100.00;98077.22;5092364;28;20020;-78
2023/03/20 00:04:51;;;;;;;1999.90;999.90;;;;;;;9.35;100.00;98074.09;5092976;28;20027;-79
2023/03/20 00:07:16;;;;;;;1999.90;999.90;;;;;;;9.26;100.00;98053.97;5092431;28;20020;-78
2023/03/20 00:09:42;;;;;;;1999.90;999.90;;;;;;;9.36;100.00;98064.81;5090564;28;20558;-78
2023/03/20 00:12:14;;;;;;;1999.90;999.90;;;;;;;9.15;100.00;98064.13;5092243;28;20055;-79
2023/03/20 00:14:40;;;;;;;1999.90;999.90;;;;;;;8.92;100.00;98042.19;5092024;28;20020;-79
2023/03/20 00:17:16;;;;;;;1999.90;999.90;;;;;;;8.98;100.00;98073.81;5091062;28;20032;-77
2023/03/20 00:19:42;;;;;;;1999.90;999.90;;;;;;;8.88;100.00;98061.03;5092060;28;20021;-81
2023/03/20 00:22:07;;;;;;;1999.90;999.90;;;;;;;8.83;100.00;98055.63;5092056;28;20518;-81
2023/03/20 00:24:33;;;;;;;1999.90;999.90;;;;;;;8.85;100.00;98068.97;5090723;28;20032;-82
2023/03/20 00:26:58;;;;;;;1999.90;999.90;;;;;;;8.81;100.00;98073.34;5092827;28;20020;-79
2023/03/20 00:29:26;;;;;;;1999.90;999.90;;;;;;;8.69;100.00;98062.78;5092583;28;20495;-77
2023/03/20 00:31:53;;;;;;;1999.90;999.90;;;;;;;8.73;100.00;98071.22;5093159;28;20506;-78
2023/03/20 00:34:22;;;;;;;1999.90;999.90;;;;;;;8.59;100.00;98055.47;5094815;28;20464;-79
2023/03/20 00:36:48;;;;;;;1999.90;999.90;;;;;;;8.55;100.00;98062.56;5093370;28;20024;-77
2023/03/20 00:39:14;;;;;;;1999.90;999.90;;;;;;;8.50;100.00;98054.41;5092026;28;20056;-80
2023/03/20 00:41:47;;;;;;;1999.90;999.90;;;;;;;8.51;100.00;98068.88;5091717;28;20131;-76
2023/03/20 00:44:15;;;;;;;1999.90;999.90;;;;;;;8.48;100.00;98059.34;5091628;28;20030;-78
2023/03/20 00:46:41;;;;;;;1999.90;999.90;;;;;;;8.43;100.00;98062.06;5091954;28;20038;-77
2023/03/20 00:49:10;;;;;;;1999.90;999.90;;;;;;;8.37;100.00;98059.63;5092660;28;20119;-79
2023/03/20 00:51:37;;;;;;;1999.90;999.90;;;;;;;8.20;100.00;98046.34;5091548;28;20127;-79
2023/03/20 00:54:10;;;;;;;1999.90;999.90;;;;;;;8.07;100.00;98025.94;5090153;28;20477;-79
2023/03/20 00:56:41;;;;;;;1999.90;999.90;;;;;;;8.18;100.00;98053.13;5091166;28;20384;-81
2023/03/20 00:59:13;;;;;;;1999.90;999.90;;;;;;;8.07;100.00;98046.91;5091198;28;20024;-79
2023/03/20 01:01:39;;;;;;;1999.90;999.90;;;;;;;8.10;100.00;98057.25;5091319;28;20533;-76
2023/03/20 01:04:11;;;;;;;1999.90;999.90;;;;;;;7.95;100.00;98033.59;5091789;28;20032;-77
2023/03/20 01:06:37;;;;;;;1999.90;999.90;;;;;;;7.94;100.00;98037.41;5090114;28;20495;-77
2023/03/20 01:09:02;;;;;;;1999.90;999.90;;;;;;;7.97;100.00;98049.66;5090279;28;20072;-80
2023/03/20 01:11:28;;;;;;;1999.90;999.90;;;;;;;7.92;100.00;98028.72;5091556;28;20438;-78
2023/03/20 01:13:53;;;;;;;1999.90;999.90;;;;;;;7.92;100.00;98036.06;5091331;28;20031;-81
2023/03/20 01:16:22;;;;;;;1999.90;999.90;;;;;;;7.90;100.00;98027.34;5091566;28;20474;-78
2023/03/20 01:18:48;;;;;;;1999.90;999.90;;;;;;;8.03;100.00;98030.31;5091867;28;20024;-81
2023/03/20 01:21:14;;;;;;;1999.90;999.90;;;;;;;8.05;100.00;98035.47;5090757;28;20115;-81
2023/03/20 01:23:39;;;;;;;1999.90;999.90;;;;;;;7.97;100.00;98031.41;5092191;28;20035;-79
2023/03/20 01:26:28;;;;;;;1999.90;999.90;;;;;;;7.85;100.00;98017.28;5093369;28;20024;-81
2023/03/20 01:28:53;;;;;;;1999.90;999.90;;;;;;;7.95;100.00;98021.91;5093364;28;20039;-83
2023/03/20 01:31:19;;;;;;;1999.90;999.90;;;;;;;7.70;100.00;98009.16;5092759;28;20028;-77
2023/03/20 01:33:45;;;;;;;1999.90;999.90;;;;;;;7.72;100.00;98017.84;5092402;28;20369;-81
2023/03/20 01:36:13;;;;;;;1999.90;999.90;;;;;;;7.78;100.00;98035.00;5092378;28;20023;-79
2023/03/20 01:38:40;;;;;;;1999.90;999.90;;;;;;;7.81;100.00;98037.16;5091902;28;20077;-77
2023/03/20 01:41:15;;;;;;;1999.90;999.90;;;;;;;7.74;100.00;98025.72;5090772;28;20448;-77
2023/03/20 01:43:41;;;;;;;1999.90;999.90;;;;;;;7.72;100.00;98025.19;5089535;28;20041;-78
2023/03/20 01:46:10;;;;;;;1999.90;999.90;;;;;;;7.70;100.00;98027.41;5090701;28;20089;-77
2023/03/20 01:48:56;;;;;;;1999.90;999.90;;;;;;;7.71;100.00;98035.28;5089451;28;20058;-79
2023/03/20 01:51:31;;;;;;;1999.90;999.90;;;;;;;7.74;100.00;98031.19;5090848;28;20039;-77
2023/03/20 01:54:14;;;;;;;1999.90;999.90;;;;;;;7.69;100.00;98017.59;5091184;28;20084;-77
2023/03/20 01:56:45;;;;;;;1999.90;999.90;;;;;;;7.70;100.00;98021.94;5090974;28;20020;-81
2023/03/20 01:59:16;;;;;;;1999.90;999.90;;;;;;;7.73;100.00;98018.69;5091113;28;20036;-80
2023/03/20 02:01:43;;;;;;;1999.90;999.90;;;;;;;7.73;100.00;98024.94;5090893;28;20051;-78
2023/03/20 02:04:10;;;;;;;1999.90;999.90;;;;;;;7.61;100.00;98023.59;5089581;28;20028;-77
2023/03/20 02:06:37;;;;;;;1999.90;999.90;;;;;;;7.65;100.00;98030.09;5091240;28;20054;-77
2023/03/20 02:09:03;;;;;;;1999.90;999.90;;;;;;;7.68;100.00;98018.66;5090626;28;20051;-77
2023/03/20 02:11:29;;;;;;;1999.90;999.90;;;;;;;7.80;100.00;98025.44;5090871;28;20024;-77
2023/03/20 02:13:58;;;;;;;1999.90;999.90;;;;;;;7.88;100.00;98034.97;5092207;28;20597;-77
2023/03/20 02:16:24;;;;;;;1999.90;999.90;;;;;;;7.81;100.00;98023.56;5091865;28;20028;-77
2023/03/20 02:18:52;;;;;;;1999.90;999.90;;;;;;;7.54;100.00;97983.88;5090587;28;20370;-77
2023/03/20 02:21:41;;;;;;;1999.90;999.90;;;;;;;7.71;100.00;98021.66;5094322;28;20392;-80
2023/03/20 02:24:31;;;;;;;1999.90;999.90;;;;;;;7.72;100.00;98027.94;5094268;28;20101;-77
2023/03/20 02:27:10;;;;;;;1999.90;999.90;;;;;;;7.71;100.00;98027.09;5092776;28;20032;-75
2023/03/20 02:29:49;;;;;;;1999.90;999.90;;;;;;;7.62;100.00;98026.03;5084792;28;20040;-77
2023/03/20 02:32:29;;;;;;;1999.90;999.90;;;;;;;7.53;100.00;98019.53;5072525;28;20043;-75
2023/03/20 02:35:19;;;;;;;1999.90;999.90;;;;;;;7.43;100.00;98014.06;5084937;28;20028;-76
2023/03/20 02:37:44;;;;;;;1999.90;999.90;;;;;;;7.33;100.00;98019.56;5073309;28;20040;-74
2023/03/20 02:40:16;;;;;;;1999.90;999.90;;;;;;;7.29;100.00;98013.84;5091805;28;20024;-75
2023/03/20 02:42:50;;;;;;;1999.90;999.90;;;;;;;7.24;100.00;98000.22;5096530;28;20038;-77
2023/03/20 02:45:35;;;;;;;1999.90;999.90;;;;;;;7.29;100.00;98002.13;5097676;28;20370;-74
2023/03/20 02:48:30;;;;;;;1999.90;999.90;;;;;;;7.37;100.00;97994.22;5094222;28;20440;-74
2023/03/20 02:51:23;;;;;;;1999.90;999.90;;;;;;;7.40;100.00;98011.91;5092334;28;20028;-74
2023/03/20 02:53:49;;;;;;;1999.90;999.90;;;;;;;7.36;100.00;98008.91;5092826;28;20039;-75
2023/03/20 02:56:56;;;;;;;1999.90;999.90;;;;;;;7.38;100.00;98005.94;5093691;28;20024;-75
2023/03/20 02:59:44;;;;;;;1999.90;999.90;;;;;;;7.48;100.00;98011.38;5033990;28;20513;-74
2023/03/20 03:02:21;;;;;;;1999.90;999.90;;;;;;;7.41;100.00;98011.66;5091271;28;20051;-74
2023/03/20 03:04:51;;;;;;;1999.90;999.90;;;;;;;7.26;100.00;97991.78;5093871;28;20047;-75
2023/03/20 03:07:21;;;;;;;1999.90;999.90;;;;;;;7.42;100.00;98005.09;5093564;28;20024;-75
2023/03/20 03:09:58;;;;;;;1999.90;999.90;;;;;;;7.24;100.00;97983.91;5092992;28;20403;-75
2023/03/20 03:12:35;;;;;;;1999.90;999.90;;;;;;;7.20;100.00;97985.56;5093300;28;20423;-75
2023/03/20 03:15:09;;;;;;;1999.90;999.90;;;;;;;7.24;100.00;97997.50;5093140;28;20160;-74
2023/03/20 03:17:37;;;;;;;1999.90;999.90;;;;;;;7.40;100.00;98004.56;5093376;28;20027;-75
2023/03/20 03:20:09;;;;;;;1999.90;999.90;;;;;;;7.49;100.00;98004.81;5093280;28;20103;-74
2023/03/20 03:22:35;;;;;;;1999.90;999.90;;;;;;;7.36;100.00;97998.03;5092909;28;20090;-74
2023/03/20 03:25:00;;;;;;;1999.90;999.90;;;;;;;7.29;100.00;97997.50;5092937;28;20047;-75
2023/03/20 03:27:49;;;;;;;1999.90;999.90;;;;;;;7.25;100.00;97996.41;5092928;28;20115;-74
2023/03/20 03:30:22;;;;;;;1999.90;999.90;;;;;;;7.37;100.00;98016.00;5091837;28;21074;-77
2023/03/20 03:32:54;;;;;;;1999.90;999.90;;;;;;;7.23;100.00;98023.09;5090005;28;20124;-74
2023/03/20 03:35:22;;;;;;;1999.90;999.90;;;;;;;7.12;100.00;98032.31;5091886;28;20016;-74
2023/03/20 03:38:23;;;;;;;1999.90;999.90;;;;;;;7.02;100.00;98018.69;5080365;28;20024;-74
2023/03/20 03:40:56;;;;;;;1999.90;999.90;;;;;;;7.07;100.00;98016.00;5073753;28;20020;-77
2023/03/20 03:43:40;;;;;;;1999.90;999.90;;;;;;;7.10;100.00;98020.91;5073240;28;20132;-74
2023/03/20 03:46:32;;;;;;;1999.90;999.90;;;;;;;7.22;100.00;98026.06;5071268;28;20084;-74
2023/03/20 03:49:01;;;;;;;1999.90;999.90;;;;;;;7.26;100.00;98019.00;5056233;28;20477;-75
2023/03/20 03:51:30;;;;;;;1999.90;999.90;;;;;;;7.26;100.00;98025.25;5072146;28;20066;-75
2023/03/20 03:54:05;;;;;;;1999.90;999.90;;;;;;;7.25;100.00;98022.81;5072041;28;20064;-74
2023/03/20 03:56:34;;;;;;;1999.90;999.90;;;;;;;7.25;100.00;98017.34;5071044;28;20039;-74
2023/03/20 03:59:10;;;;;;;1999.90;999.90;;;;;;;7.30;100.00;98029.06;5072049;28;20033;-74
2023/03/20 04:01:37;;;;;;;1999.90;999.90;;;;;;;7.23;100.00;98023.09;5072189;28;20056;-75
2023/03/20 04:04:07;;;;;;;1999.90;999.90;;;;;;;7.14;100.00;98019.25;5071966;28;20060;-75
2023/03/20 04:06:32;;;;;;;1999.90;999.90;;;;;;;7.29;100.00;98034.78;5072597;28;20501;-73
2023/03/20 04:08:58;;;;;;;1999.90;999.90;;;;;;;7.31;100.00;98027.97;5071983;28;20153;-75
2023/03/20 04:11:27;;;;;;;1999.90;999.90;;;;;;;7.33;100.00;98020.34;5072253;28;20477;-75
2023/03/20 04:13:52;;;;;;;1999.90;999.90;;;;;;;7.29;100.00;98022.00;5071881;28;20439;-75
2023/03/20 04:16:20;;;;;;;1999.90;999.90;;;;;;;7.30;100.00;98028.25;5071911;28;20058;-76
2023/03/20 04:18:46;;;;;;;1999.90;999.90;;;;;;;7.24;100.00;98021.97;5071786;28;20056;-74
2023/03/20 04:21:11;;;;;;;1999.90;999.90;;;;;;;7.25;100.00;98039.94;5071864;28;20067;-74
2023/03/20 04:23:37;;;;;;;1999.90;999.90;;;;;;;7.19;100.00;98023.88;5072128;28;20021;-77
2023/03/20 04:26:03;;;;;;;1999.90;999.90;;;;;;;7.25;100.00;98034.50;5072233;28;20024;-74
2023/03/20 04:28:29;;;;;;;1999.90;999.90;;;;;;;7.25;100.00;98026.34;5071672;28;20076;-77
2023/03/20 04:30:56;;;;;;;1999.90;999.90;;;;;;;7.27;100.00;98048.63;5071814;28;20074;-75
2023/03/20 04:33:23;;;;;;;1999.90;999.90;;;;;;;7.19;100.00;98051.09;5071658;28;20024;-76
2023/03/20 04:35:49;;;;;;;1999.90;999.90;;;;;;;7.15;100.00;98037.22;5083116;28;20067;-77
2023/03/20 04:38:15;;;;;;;1999.90;999.90;;;;;;;7.21;100.00;98027.97;5071424;28;20060;-77
2023/03/20 04:40:40;;;;;;;1999.90;999.90;;;;;;;7.15;100.00;98037.22;5080375;28;20024;-76
2023/03/20 04:43:06;;;;;;;1999.90;999.90;;;;;;;7.03;100.00;98012.19;5094087;28;20426;-75
2023/03/20 04:45:31;;;;;;;1999.90;999.90;;;;;;;7.16;100.00;98025.25;5093000;28;20092;-76
2023/03/20 04:47:56;;;;;;;1999.90;999.90;;;;;;;7.10;100.00;98015.47;5092748;28;20051;-75
2023/03/20 04:50:22;;;;;;;1999.90;999.90;;;;;;;7.07;100.00;98018.72;5093327;28;20503;-75
2023/03/20 04:52:47;;;;;;;1999.90;999.90;;;;;;;7.07;100.00;98026.88;5087493;28;20028;-75
2023/03/20 04:55:13;;;;;;;1999.90;999.90;;;;;;;7.24;100.00;98048.34;5075367;28;20112;-77
2023/03/20 04:57:38;;;;;;;1999.90;999.90;;;;;;;7.26;100.00;98041.59;5075615;28;20036;-75
2023/03/20 05:00:04;;;;;;;1999.90;999.90;;;;;;;7.12;100.00;98017.91;5076039;28;20135;-77
2023/03/20 05:02:30;;;;;;;1999.90;999.90;;;;;;;7.09;100.00;98023.88;5076113;28;20021;-81
2023/03/20 05:04:55;;;;;;;1999.90;999.90;;;;;;;7.02;100.00;98036.94;5076036;28;20586;-78
2023/03/20 05:07:21;;;;;;;1999.90;999.90;;;;;;;6.82;100.00;98024.13;5073184;28;20024;-76
2023/03/20 05:09:46;;;;;;;1999.90;999.90;;;;;;;6.85;100.00;98029.03;5071424;28;20036;-74
2023/03/20 05:12:12;;;;;;;1999.90;999.90;;;;;;;6.83;100.00;98032.00;5070574;28;20032;-76
2023/03/20 05:14:38;;;;;;;1999.90;999.90;;;;;;;6.92;100.00;98033.09;5070695;28;20566;-76
2023/03/20 05:17:04;;;;;;;1999.90;999.90;;;;;;;6.94;100.00;98043.72;5087055;28;20028;-76
2023/03/20 05:19:29;;;;;;;1999.90;999.90;;;;;;;6.84;100.00;98036.38;5089457;28;20024;-75
2023/03/20 05:21:55;;;;;;;1999.90;999.90;;;;;;;6.69;100.00;98035.50;5090630;28;20028;-76
2023/03/20 05:24:21;;;;;;;1999.90;999.90;;;;;;;6.78;100.00;98052.94;5091512;28;20039;-76
2023/03/20 05:26:46;;;;;;;1999.90;999.90;;;;;;;6.73;100.00;98044.78;5089396;28;20101;-76
2023/03/20 05:29:12;;;;;;;1999.90;999.90;;;;;;;6.67;100.00;98032.25;5090549;28;20027;-75
2023/03/20 05:31:37;;;;;;;1999.90;999.90;;;;;;;6.63;100.00;98040.13;5090474;28;20051;-76
2023/03/20 05:34:04;;;;;;;1999.90;999.90;;;;;;;6.59;100.00;98035.47;5090557;28;20108;-75
2023/03/20 05:36:29;;;;;;;1999.90;999.90;;;;;;;6.65;100.00;98053.44;5090637;28;20019;-76
2023/03/20 05:38:55;;;;;;;1999.90;999.90;;;;;;;6.62;100.00;98043.09;5090406;28;20020;-77
2023/03/20 05:41:20;;;;;;;1999.90;999.90;;;;;;;6.66;100.00;98044.22;5090293;28;20070;-75
2023/03/20 05:43:46;;;;;;;1999.90;999.90;;;;;;;6.49;100.00;98047.13;5090704;28;20500;-75
2023/03/20 05:46:11;;;;;;;1999.90;999.90;;;;;;;6.45;100.00;98035.97;5103304;28;20020;-89
2023/03/20 05:48:36;;;;;;;1999.90;999.90;;;;;;;6.65;100.00;98056.97;5099766;28;20027;-83
2023/03/20 05:51:02;;;;;;;1999.90;999.90;;;;;;;6.78;100.00;98045.59;5098995;28;20114;-85
2023/03/20 05:53:27;;;;;;;1999.90;999.90;;;;;;;7.11;100.00;98055.16;5097930;28;20035;-80
2023/03/20 05:55:53;;;;;;;1999.90;999.90;;;;;;;7.09;100.00;98051.91;5094410;28;20040;-76
2023/03/20 05:58:18;;;;;;;1999.90;999.90;;;;;;;7.21;100.00;98055.16;5100686;28;20030;-79
2023/03/20 06:00:43;;;;;;;1999.90;999.90;;;;;;;7.23;100.00;98050.28;5094149;28;20051;-77
2023/03/20 06:03:09;;;;;;;1999.90;999.90;;;;;;;7.36;100.00;98044.28;5094698;28;20397;-75
2023/03/20 06:05:35;;;;;;;1999.90;999.90;;;;;;;7.57;100.00;98057.91;5094403;28;20089;-76
2023/03/20 06:08:02;;;;;;;1999.90;999.90;;;;;;;7.74;100.00;98070.13;5092757;28;20071;-75
2023/03/20 06:10:28;;;;;;;1999.90;999.90;;;;;;;7.87;100.00;98074.19;5093744;28;20036;-76
2023/03/20 06:12:55;;;;;;;1999.90;999.90;;;;;;;8.05;100.00;98070.88;5094675;28;20062;-74
2023/03/20 06:15:20;;;;;;;1999.90;999.90;;;;;;;8.19;100.00;98071.94;5092393;28;20496;-76
2023/03/20 06:17:46;;;;;;;1999.90;999.90;;;;;;;8.35;100.00;98075.47;5092923;28;20060;-75
2023/03/20 06:20:11;;;;;;;1999.90;999.90;;;;;;;8.39;100.00;98082.81;5094324;28;20020;-75
2023/03/20 06:22:37;;;;;;;1999.90;999.90;;;;;;;8.46;100.00;98069.69;5094437;28;20020;-75
2023/03/20 06:25:02;;;;;;;1999.90;999.90;;;;;;;8.34;100.00;98055.56;5094850;28;20047;-78
2023/03/20 06:27:28;;;;;;;1999.90;999.90;;;;;;;8.63;100.00;98084.88;5096496;28;20377;-77
2023/03/20 06:29:54;;;;;;;1999.90;999.90;;;;;;;8.51;100.00;98075.13;5098299;28;20035;-77
2023/03/20 06:32:19;;;;;;;1999.90;999.90;;;;;;;8.77;100.00;98072.28;5095884;28;20420;-78
2023/03/20 06:34:45;;;;;;;1999.90;999.90;;;;;;;8.72;100.00;98064.94;5094976;28;20358;-76
2023/03/20 06:37:11;;;;;;;1999.90;999.90;;;;;;;8.91;100.00;98081.47;5094583;28;20046;-76
2023/03/20 06:39:37;;;;;;;1999.90;999.90;;;;;;;8.86;100.00;98076.06;5094153;28;20024;-76
2023/03/20 06:42:02;;;;;;;1999.90;999.90;;;;;;;8.99;100.00;98089.09;5090114;28;20042;-77
2023/03/20 06:44:27;;;;;;;1999.90;999.90;;;;;;;9.03;100.00;98090.13;5092782;28;20078;-75
2023/03/20 06:46:53;;;;;;;1999.90;999.90;;;;;;;8.88;99.16;98071.13;5091692;28;20350;-75
2023/03/20 06:49:18;;;;;;;1999.90;999.90;;;;;;;9.06;99.89;98103.22;5092542;28;20034;-74
2023/03/20 06:51:46;;;;;;;1999.90;999.90;;;;;;;9.08;100.00;98095.59;5091497;28;20035;-74
2023/03/20 06:54:11;;;;;;;1999.90;999.90;;;;;;;9.20;98.19;98100.69;5093684;28;20032;-74
2023/03/20 06:56:37;;;;;;;1999.90;999.90;;;;;;;9.38;99.01;98100.81;5093006;28;20028;-76
2023/03/20 06:59:02;;;;;;;1999.90;999.90;;;;;;;9.31;96.75;98100.31;5096379;28;20361;-76
2023/03/20 07:01:28;;;;;;;1999.90;999.90;;;;;;;9.53;96.25;98114.34;5099124;28;20024;-78
2023/03/20 07:03:53;;;;;;;1999.90;999.90;;;;;;;9.46;97.68;98099.41;5093589;28;20020;-75
2023/03/20 07:06:19;;;;;;;1999.90;999.90;;;;;;;9.33;95.31;98091.88;5092792;28;20028;-75
2023/03/20 07:08:44;;;;;;;1999.90;999.90;;;;;;;9.39;95.67;98112.56;5092586;28;20036;-75
2023/03/20 07:11:10;;;;;;;1999.90;999.90;;;;;;;9.44;94.41;98109.78;5093351;28;20480;-75
2023/03/20 07:13:36;;;;;;;1999.90;999.90;;;;;;;9.41;94.48;98111.19;5092850;28;20388;-75
2023/03/20 07:16:03;;;;;;;1999.90;999.90;;;;;;;9.67;92.56;98115.34;5094051;28;20385;-77
2023/03/20 07:18:29;;;;;;;1999.90;999.90;;;;;;;9.85;91.83;98113.84;5093784;28;20685;-75
2023/03/20 07:21:01;;;;;;;1999.90;999.90;;;;;;;10.15;90.22;98105.38;5093731;28;20063;-75
2023/03/20 07:23:27;;;;;;;1999.90;999.90;;;;;;;10.33;89.95;98113.94;5092976;28;20020;-77
2023/03/20 07:25:52;;;;;;;1999.90;999.90;;;;;;;10.51;86.26;98103.06;5093255;28;20031;-74
2023/03/20 07:28:18;;;;;;;1999.90;999.90;;;;;;;10.66;85.97;98113.84;5092394;28;20103;-75
2023/03/20 07:30:43;;;;;;;1999.90;999.90;;;;;;;10.72;86.66;98120.06;5093556;28;20020;-75
2023/03/20 07:33:09;;;;;;;1999.90;999.90;;;;;;;11.04;86.64;98111.16;5093039;28;20063;-75
2023/03/20 07:35:34;;;;;;;1999.90;999.90;;;;;;;11.05;84.20;98104.59;5092965;28;20098;-75
2023/03/20 07:38:00;;;;;;;1999.90;999.90;;;;;;;11.14;83.65;98108.31;5091614;28;20430;-75
2023/03/20 07:40:25;;;;;;;1999.90;999.90;;;;;;;11.48;83.48;98124.50;5092624;28;20454;-75
2023/03/20 07:42:51;;;;;;;1999.90;999.90;;;;;;;11.69;78.88;98134.84;5091392;28;20039;-77
2023/03/20 07:45:19;;;;;;;1999.90;999.90;;;;;;;11.80;78.07;98135.56;5094010;28;20047;-81
2023/03/20 07:47:47;;;;;;;1999.90;999.90;;;;;;;11.95;78.18;98137.22;5098075;28;20020;-84
2023/03/20 07:50:12;;;;;;;1999.90;999.90;;;;;;;11.70;78.70;98102.81;5095277;28;20073;-84
2023/03/20 07:52:37;;;;;;;1999.90;999.90;;;;;;;11.85;76.94;98138.19;5093834;28;20387;-82
2023/03/20 07:55:03;;;;;;;1999.90;999.90;;;;;;;11.78;76.51;98091.16;5093938;28;20031;-85
2023/03/20 07:57:28;;;;;;;1999.90;999.90;;;;;;;12.35;75.05;98133.75;5091793;28;20020;-76
2023/03/20 07:59:54;;;;;;;1999.90;999.90;;;;;;;12.80;72.94;98141.13;5094098;28;20047;-78
2023/03/20 08:02:19;;;;;;;1999.90;999.90;;;;;;;12.83;71.60;98137.78;5094173;28;20503;-80
2023/03/20 08:04:45;;;;;;;1999.90;999.90;;;;;;;12.86;72.33;98152.81;5092082;28;20039;-75
2023/03/20 08:07:11;;;;;;;1999.90;999.90;;;;;;;12.65;73.50;98119.47;5091022;28;20063;-84
2023/03/20 08:09:37;;;;;;;1999.90;999.90;;;;;;;12.90;71.13;98134.63;5090879;28;20040;-80
2023/03/20 08:12:05;;;;;;;1999.90;999.90;;;;;;;12.93;72.18;98142.25;5090831;28;20039;-78
2023/03/20 08:14:31;;;;;;;1999.90;999.90;;;;;;;13.13;70.60;98154.75;5090857;28;20396;-80
2023/03/20 08:16:57;;;;;;;1999.90;999.90;;;;;;;13.10;71.10;98156.19;5090386;28;20034;-77
2023/03/20 08:19:22;;;;;;;1999.90;999.90;;;;;;;13.17;70.64;98142.03;5090876;28;20525;-76
2023/03/20 08:21:48;;;;;;;1999.90;999.90;;;;;;;13.28;70.30;98154.47;5090737;28;20031;-79
2023/03/20 08:24:14;;;;;;;1999.90;999.90;;;;;;;13.14;70.66;98142.66;5090778;28;20019;-77
2023/03/20 08:26:40;;;;;;;1999.90;999.90;;;;;;;13.29;70.26;98145.06;5089043;28;20024;-76
2023/03/20 08:29:06;;;;;;;1999.90;999.90;;;;;;;13.72;69.69;98165.53;5090726;28;20065;-77
2023/03/20 08:31:31;;;;;;;1999.90;999.90;;;;;;;14.18;65.76;98154.25;5091184;28;20443;-79
2023/03/20 08:33:57;;;;;;;1999.90;999.90;;;;;;;13.88;68.06;98175.03;5089236;28;20112;-76
2023/03/20 08:36:23;;;;;;;1999.90;999.90;;;;;;;14.01;67.80;98167.03;5090472;28;20123;-76
2023/03/20 08:38:49;;;;;;;1999.90;999.90;;;;;;;14.32;65.38;98167.91;5091438;28;20485;-76
2023/03/20 08:41:15;;;;;;;1999.90;999.90;;;;;;;13.69;67.57;98159.84;5091375;28;20469;-77
2023/03/20 08:43:40;;;;;;;1999.90;999.90;;;;;;;13.79;68.74;98165.91;5091449;28;20433;-79
2023/03/20 08:46:06;;;;;;;1999.90;999.90;;;;;;;13.87;67.89;98169.88;5091106;28;20119;-77
2023/03/20 08:48:32;;;;;;;1999.90;999.90;;;;;;;14.01;68.64;98161.53;5090249;28;20024;-76
2023/03/20 08:50:57;;;;;;;1999.90;999.90;;;;;;;14.20;67.22;98168.50;5090592;28;20028;-77
2023/03/20 08:53:23;;;;;;;1999.90;999.90;;;;;;;14.42;67.49;98163.00;5091761;28;20048;-78
2023/03/20 08:55:50;;;;;;;1999.90;999.90;;;;;;;14.49;67.44;98162.56;5091620;28;20009;-77
2023/03/20 08:58:16;;;;;;;1999.90;999.90;;;;;;;14.45;66.84;98167.88;5092025;28;20130;-76
2023/03/20 09:00:42;;;;;;;1999.90;999.90;;;;;;;14.71;67.10;98164.44;5090762;28;20028;-76
2023/03/20 09:03:16;;;;;;;1999.90;999.90;;;;;;;14.58;67.19;98159.84;5091677;28;20040;-76
2023/03/20 09:05:46;;;;;;;1999.90;999.90;;;;;;;14.39;68.13;98171.06;5091847;28;20035;-77
2023/03/20 09:08:12;;;;;;;1999.90;999.90;;;;;;;14.39;69.45;98168.31;5091935;28;20047;-76
2023/03/20 09:10:39;;;;;;;1999.90;999.90;;;;;;;14.52;68.85;98172.94;5090545;28;20063;-78
2023/03/20 09:13:05;;;;;;;1999.90;999.90;;;;;;;14.30;69.60;98164.66;5091061;28;20541;-76
2023/03/20 09:15:30;;;;;;;1999.90;999.90;;;;;;;14.13;71.20;98159.84;5091115;28;20032;-76
2023/03/20 09:17:56;;;;;;;1999.90;999.90;;;;;;;14.16;70.70;98175.72;5091231;28;20016;-78
2023/03/20 09:20:21;;;;;;;1999.90;999.90;;;;;;;14.09;73.24;98171.81;5089853;28;20758;-81
2023/03/20 09:22:47;;;;;;;1999.90;999.90;;;;;;;14.34;70.12;98173.97;5090897;28;20496;-77
2023/03/20 09:25:12;;;;;;;1999.90;999.90;;;;;;;14.04;70.44;98178.25;5091242;28;20081;-80
2023/03/20 09:27:38;;;;;;;1999.90;999.90;;;;;;;13.53;73.52;98139.34;5092167;28;20473;-76
2023/03/20 09:30:06;;;;;;;1999.90;999.90;;;;;;;13.69;74.49;98163.38;5090087;28;20024;-78
2023/03/20 09:32:31;;;;;;;1999.90;999.90;;;;;;;13.90;72.77;98178.31;5090069;28;20036;-76
2023/03/20 09:34:57;;;;;;;1999.90;999.90;;;;;;;14.02;71.86;98166.75;5090929;28;20455;-82
2023/03/20 09:37:23;;;;;;;1999.90;999.90;;;;;;;14.15;70.04;98148.56;5090831;28;20085;-76
2023/03/20 09:39:48;;;;;;;1999.90;999.90;;;;;;;14.09;69.35;98152.56;5089400;28;20521;-78
2023/03/20 09:42:32;;;;;;;1999.90;999.90;;;;;;;14.23;69.59;98164.28;5090836;28;20028;-79
2023/03/20 09:45:13;;;;;;;1999.90;999.90;;;;;;;14.24;69.96;98161.25;5090965;28;20031;-78
2023/03/20 09:47:59;;;;;;;1999.90;999.90;;;;;;;14.33;68.54;98167.63;5090629;28;20016;-78
2023/03/20 09:50:32;;;;;;;1999.90;999.90;;;;;;;14.52;67.73;98161.91;5089414;28;20445;-77
2023/03/20 09:53:06;;;;;;;1999.90;999.90;;;;;;;14.45;67.19;98165.13;5090987;28;20060;-76
2023/03/20 09:55:38;;;;;;;1999.90;999.90;;;;;;;14.33;68.17;98150.31;5089620;28;20424;-77
2023/03/20 09:58:21;;;;;;;1999.90;999.90;;;;;;;14.81;67.28;98147.66;5090905;28;20123;-80
2023/03/20 10:00:47;;;;;;;1999.90;999.90;;;;;;;15.25;64.24;98160.44;5090844;28;20028;-77
2023/03/20 10:03:30;;;;;;;1999.90;999.90;;;;;;;15.23;62.18;98159.91;5090883;28;20134;-81
2023/03/20 10:06:02;;;;;;;1999.90;999.90;;;;;;;15.51;63.31;98161.31;5090984;28;20024;-82
2023/03/20 10:08:32;;;;;;;1999.90;999.90;;;;;;;16.15;59.84;98169.78;5090528;28;20545;-79
2023/03/20 10:11:25;;;;;;;1999.90;999.90;;;;;;;16.35;60.20;98171.88;5091083;28;20423;-77
2023/03/20 10:14:00;;;;;;;1999.90;999.90;;;;;;;16.58;56.76;98168.59;5091101;28;20032;-77
2023/03/20 10:16:50;;;;;;;1999.90;999.90;;;;;;;16.94;55.10;98165.41;5091235;28;20435;-77
2023/03/20 10:19:26;;;;;;;1999.90;999.90;;;;;;;16.87;55.67;98176.16;5091448;28;20039;-77
2023/03/20 10:22:21;;;;;;;1999.90;999.90;;;;;;;16.99;55.93;98162.44;5090869;28;20024;-79
2023/03/20 10:25:38;;;;;;;1999.90;999.90;;;;;;;17.05;54.20;98149.22;5088411;28;20488;-83
2023/03/20 10:28:18;;;;;;;1999.90;999.90;;;;;;;17.03;53.29;98163.41;5067448;28;20048;-77
2023/03/20 10:31:07;;;;;;;1999.90;999.90;;;;;;;17.07;53.89;98158.81;5090570;28;20032;-77
2023/03/20 10:33:32;;;;;;;1999.90;999.90;;;;;;;16.87;53.76;98159.56;5087266;28;20047;-77
2023/03/20 10:36:04;;;;;;;1999.90;999.90;;;;;;;16.57;54.33;98155.13;5090714;28;20028;-79
2023/03/20 10:38:35;;;;;;;1999.90;999.90;;;;;;;16.95;52.46;98155.94;5090574;28;20024;-79
2023/03/20 10:41:03;;;;;;;1999.90;999.90;;;;;;;17.35;51.96;98159.19;5091916;28;20024;-80
2023/03/20 10:43:34;;;;;;;1999.90;999.90;;;;;;;17.25;52.74;98150.44;5094030;28;20046;-79
2023/03/20 10:46:10;;;;;;;1999.90;999.90;;;;;;;17.53;51.29;98157.09;5093825;28;20071;-79
2023/03/20 10:48:40;;;;;;;1999.90;999.90;;;;;;;17.82;50.48;98153.50;5093726;28;20020;-76
2023/03/20 10:51:13;;;;;;;1999.90;999.90;;;;;;;18.28;50.41;98150.50;5092288;28;20063;-77
2023/03/20 10:53:50;;;;;;;1999.90;999.90;;;;;;;18.54;49.10;98151.03;5094116;28;20468;-76
2023/03/20 10:56:29;;;;;;;1999.90;999.90;;;;;;;18.19;50.66;98139.50;5093729;28;20031;-76
2023/03/20 10:59:21;;;;;;;1999.90;999.90;;;;;;;18.32;49.62;98147.84;5093364;28;20020;-78
2023/03/20 11:01:46;;;;;;;1999.90;999.90;;;;;;;18.41;48.50;98146.63;5090203;28;20040;-80
2023/03/20 11:04:12;;;;;;;1999.90;999.90;;;;;;;18.04;49.12;98129.03;5093331;28;20385;-79
2023/03/20 11:07:22;;;;;;;1999.90;999.90;;;;;;;17.75;51.62;98139.41;5093396;28;20102;-76